KLBE/LBE METAR and TAF weather

Enter ICAO airport designator
Station Type Date Time Source
KLBE METAR 2019/06/16 04:55 UTC NOAA

KLBE 160455Z AUTO 21005KT 10SM -RA FEW044 FEW055 BKN070 20/16 A2991 RMK AO2


Station Type Date Time Source
KLBE Decoded METAR 2019/06/16 04:55 UTC NOAA

Latrobe / Westmorland, PA, United States (KLBE) 40-17N 079-24W
Jun 16, 2019 - 12:55 AM EDT / 2019.06.16 0455 UTC
Wind: from the SSW (210 degrees) at 6 MPH (5 KT):0
Visibility: 10 mile(s):0
Sky conditions: mostly cloudy
Weather: light rain
Temperature: 68 F (20 C)
Dew Point: 60 F (16 C)
Relative Humidity: 77%
Pressure (altimeter): 29.91 in. Hg (1012 hPa)
ob: KLBE 160455Z AUTO 21005KT 10SM -RA FEW044 FEW055 BKN070 20/16 A2991 RMK AO2
cycle: 5

Station Type Date Time Source
KLBE TAF 2019/06/15 18:24 UTC NOAA

TAF KLBE 151721Z 1518/1618 22012G18KT P6SM BKN050
FM160800 20009KT P6SM -SHRA OVC025 WS020/24035KT
FM161100 20010G11KT P6SM VCSH OVC015 WS020/24035KT
FM161700 23010G18KT 6SM -SHRA VCTS OVC015CB

Example: see airport list